^^
Station Historical Data
Daily Summary for December 6, 2017 Units:  Both    English   Metric
« Previous Day
Next Day »
Daily Weekly Monthly Yearly Custom
  High: Low: Average:
Temperature: 92.8 °F /  33.8 °C 63.1 °F /  17.3 °C 74.7 °F /  23.7 °C
Dew Point: 58.5 °F /  14.7 °C 41.2 °F /  5.1 °C 50.6 °F /  10.3 °C
Humidity: 66% 19% 45%
Wind Speed: 13.0mph /  20.9km/h - 2.2mph /  3.5km/h
Wind Gust: 17.0mph /  27.4km/h - -
Wind- - SSE
Pressure: 30.23 in /  1023.6 hPa 30.08 in /  1018.5 hPa -
Precipitation: 0.00 in /  0 mm    
Historical Graphs
 
 
Tabular Data for December 6, 2017
Time Temperature Dew Point Pressure Wind Wind Speed Wind Gust Humidity Rainfall Rate (Hourly) solar Conditions
00:03 69.6 °F /  20.9 °C 46.8 °F /  8.2 °C 30.19in /  1022.2hPa Calm   3.0mph /  4.8km/h 44% 0.00in /  0mm 0.0 W/m2
00:08 69.6 °F /  20.9 °C 46.8 °F /  8.2 °C 30.19in /  1022.2hPa Calm   4.0mph /  6.4km/h 44% 0.00in /  0mm 0.0 W/m2
00:13 69.4 °F /  20.8 °C 46.0 °F /  7.8 °C 30.19in /  1022.2hPa ENE 0.9mph /  1.4km/h 1.0mph /  1.6km/h 43% 0.00in /  0mm 0.0 W/m2
00:19 69.4 °F /  20.8 °C 46.0 °F /  7.8 °C 30.19in /  1022.2hPa ENE 0.9mph /  1.4km/h 1.0mph /  1.6km/h 43% 0.00in /  0mm 0.0 W/m2
00:24 69.3 °F /  20.7 °C 45.9 °F /  7.7 °C 30.19in /  1022.2hPa SE 0.9mph /  1.4km/h 2.0mph /  3.2km/h 43% 0.00in /  0mm 0.0 W/m2
00:29 69.3 °F /  20.7 °C 44.6 °F /  7 °C 30.19in /  1022.2hPa Calm     41% 0.00in /  0mm 0.0 W/m2
00:35 69.1 °F /  20.6 °C 43.2 °F /  6.2 °C 30.19in /  1022.2hPa South 0.9mph /  1.4km/h 1.0mph /  1.6km/h 39% 0.00in /  0mm 0.0 W/m2
00:40 68.7 °F /  20.4 °C 41.4 °F /  5.2 °C 30.19in /  1022.2hPa Calm   1.0mph /  1.6km/h 37% 0.00in /  0mm 0.0 W/m2
00:45 68.5 °F /  20.3 °C 41.2 °F /  5.1 °C 30.19in /  1022.2hPa Calm     37% 0.00in /  0mm 0.0 W/m2
00:52 68.4 °F /  20.2 °C 43.2 °F /  6.2 °C 30.19in /  1022.2hPa Calm     40% 0.00in /  0mm 0.0 W/m2
00:57 68.2 °F /  20.1 °C 42.3 °F /  5.7 °C 30.18in /  1021.9hPa Calm     39% 0.00in /  0mm 0.0 W/m2
01:02 68.0 °F /  20 °C 42.8 °F /  6 °C 30.18in /  1021.9hPa Calm     40% 0.00in /  0mm 0.0 W/m2
01:12 67.6 °F /  19.8 °C 42.4 °F /  5.8 °C 30.18in /  1021.9hPa Calm     40% 0.00in /  0mm 0.0 W/m2
01:17 67.5 °F /  19.7 °C 42.3 °F /  5.7 °C 30.19in /  1022.2hPa Calm     40% 0.00in /  0mm 0.0 W/m2
01:22 67.5 °F /  19.7 °C 43.0 °F /  6.1 °C 30.18in /  1021.9hPa Calm     41% 0.00in /  0mm 0.0 W/m2
01:27 67.3 °F /  19.6 °C 42.8 °F /  6 °C 30.18in /  1021.9hPa Calm     41% 0.00in /  0mm 0.0 W/m2
01:32 67.3 °F /  19.6 °C 44.1 °F /  6.7 °C 30.18in /  1021.9hPa Calm     43% 0.00in /  0mm 0.0 W/m2
01:37 67.3 °F /  19.6 °C 42.1 °F /  5.6 °C 30.18in /  1021.9hPa Calm     40% 0.00in /  0mm 0.0 W/m2
01:43 67.1 °F /  19.5 °C 41.4 °F /  5.2 °C 30.17in /  1021.6hPa Calm     39% 0.00in /  0mm 0.0 W/m2
01:48 67.1 °F /  19.5 °C 43.2 °F /  6.2 °C 30.18in /  1021.9hPa Calm     42% 0.00in /  0mm 0.0 W/m2
01:54 67.1 °F /  19.5 °C 45.0 °F /  7.2 °C 30.17in /  1021.6hPa Calm     45% 0.00in /  0mm 0.0 W/m2
01:59 66.9 °F /  19.4 °C 45.5 °F /  7.5 °C 30.17in /  1021.6hPa Calm     46% 0.00in /  0mm 0.0 W/m2
02:04 66.9 °F /  19.4 °C 46.6 °F /  8.1 °C 30.17in /  1021.6hPa Calm     48% 0.00in /  0mm 0.0 W/m2
02:09 66.9 °F /  19.4 °C 45.5 °F /  7.5 °C 30.17in /  1021.6hPa Calm     46% 0.00in /  0mm 0.0 W/m2
02:14 66.7 °F /  19.3 °C 45.9 °F /  7.7 °C 30.16in /  1021.2hPa Calm     47% 0.00in /  0mm 0.0 W/m2
02:19 66.7 °F /  19.3 °C 45.3 °F /  7.4 °C 30.16in /  1021.2hPa Calm     46% 0.00in /  0mm 0.0 W/m2
02:24 66.6 °F /  19.2 °C 45.7 °F /  7.6 °C 30.16in /  1021.2hPa Calm     47% 0.00in /  0mm 0.0 W/m2
02:30 66.6 °F /  19.2 °C 46.2 °F /  7.9 °C 30.16in /  1021.2hPa Calm     48% 0.00in /  0mm 0.0 W/m2
02:35 66.4 °F /  19.1 °C 47.1 °F /  8.4 °C 30.16in /  1021.2hPa Calm     50% 0.00in /  0mm 0.0 W/m2
02:40 66.4 °F /  19.1 °C 47.7 °F /  8.7 °C 30.16in /  1021.2hPa Calm     51% 0.00in /  0mm 0.0 W/m2
02:45 66.0 °F /  18.9 °C 46.8 °F /  8.2 °C 30.16in /  1021.2hPa Calm     50% 0.00in /  0mm 0.0 W/m2
02:51 66.0 °F /  18.9 °C 46.8 °F /  8.2 °C 30.16in /  1021.2hPa Calm   1.0mph /  1.6km/h 50% 0.00in /  0mm 0.0 W/m2
02:56 66.0 °F /  18.9 °C 46.4 °F /  8 °C 30.16in /  1021.2hPa Calm     49% 0.00in /  0mm 0.0 W/m2
03:01 66.0 °F /  18.9 °C 45.7 °F /  7.6 °C 30.16in /  1021.2hPa Calm     48% 0.00in /  0mm 0.0 W/m2
03:07 65.8 °F /  18.8 °C 45.7 °F /  7.6 °C 30.16in /  1021.2hPa Calm     48% 0.00in /  0mm 0.0 W/m2
03:12 65.8 °F /  18.8 °C 45.0 °F /  7.2 °C 30.16in /  1021.2hPa Calm     47% 0.00in /  0mm 0.0 W/m2
03:17 65.8 °F /  18.8 °C 45.0 °F /  7.2 °C 30.16in /  1021.2hPa Calm   1.0mph /  1.6km/h 47% 0.00in /  0mm 0.0 W/m2
03:22 65.8 °F /  18.8 °C 44.4 °F /  6.9 °C 30.16in /  1021.2hPa Calm     46% 0.00in /  0mm 0.0 W/m2
03:28 65.8 °F /  18.8 °C 44.4 °F /  6.9 °C 30.18in /  1021.9hPa Calm     46% 0.00in /  0mm 0.0 W/m2
03:33 65.8 °F /  18.8 °C 43.9 °F /  6.6 °C 30.18in /  1021.9hPa Calm     45% 0.00in /  0mm 0.0 W/m2
03:38 65.8 °F /  18.8 °C 43.9 °F /  6.6 °C 30.18in /  1021.9hPa Calm     45% 0.00in /  0mm 0.0 W/m2
03:49 65.5 °F /  18.6 °C 44.2 °F /  6.8 °C 30.18in /  1021.9hPa Calm   1.0mph /  1.6km/h 46% 0.00in /  0mm 0.0 W/m2
03:54 65.3 °F /  18.5 °C 44.1 °F /  6.7 °C 30.18in /  1021.9hPa Calm   1.0mph /  1.6km/h 46% 0.00in /  0mm 0.0 W/m2
04:00 65.1 °F /  18.4 °C 43.9 °F /  6.6 °C 30.19in /  1022.2hPa Calm     46% 0.00in /  0mm 0.0 W/m2
04:05 65.1 °F /  18.4 °C 44.4 °F /  6.9 °C 30.19in /  1022.2hPa Calm     47% 0.00in /  0mm 0.0 W/m2
04:10 65.1 °F /  18.4 °C 44.4 °F /  6.9 °C 30.19in /  1022.2hPa Calm     47% 0.00in /  0mm 0.0 W/m2
04:16 65.1 °F /  18.4 °C 44.4 °F /  6.9 °C 30.19in /  1022.2hPa Calm     47% 0.00in /  0mm 0.0 W/m2
04:21 65.3 °F /  18.5 °C 44.1 °F /  6.7 °C 30.19in /  1022.2hPa Calm     46% 0.00in /  0mm 0.0 W/m2
04:26 65.3 °F /  18.5 °C 44.6 °F /  7 °C 30.19in /  1022.2hPa Calm     47% 0.00in /  0mm 0.0 W/m2
04:32 65.1 °F /  18.4 °C 44.4 °F /  6.9 °C 30.19in /  1022.2hPa NE 0.9mph /  1.4km/h 1.0mph /  1.6km/h 47% 0.00in /  0mm 0.0 W/m2
04:37 65.5 °F /  18.6 °C 44.8 °F /  7.1 °C 30.19in /  1022.2hPa Calm   2.0mph /  3.2km/h 47% 0.00in /  0mm 0.0 W/m2
04:42 65.7 °F /  18.7 °C 45.0 °F /  7.2 °C 30.19in /  1022.2hPa Calm   1.0mph /  1.6km/h 47% 0.00in /  0mm 0.0 W/m2
04:48 65.7 °F /  18.7 °C 45.0 °F /  7.2 °C 30.19in /  1022.2hPa Calm   1.0mph /  1.6km/h 47% 0.00in /  0mm 0.0 W/m2
04:53 65.7 °F /  18.7 °C 45.0 °F /  7.2 °C 30.19in /  1022.2hPa Calm   1.0mph /  1.6km/h 47% 0.00in /  0mm 0.0 W/m2
04:58 65.5 °F /  18.6 °C 44.8 °F /  7.1 °C 30.19in /  1022.2hPa Calm   1.0mph /  1.6km/h 47% 0.00in /  0mm 0.0 W/m2
05:04 65.1 °F /  18.4 °C 43.9 °F /  6.6 °C 30.19in /  1022.2hPa Calm     46% 0.00in /  0mm 0.0 W/m2
05:09 64.9 °F /  18.3 °C 44.2 °F /  6.8 °C 30.19in /  1022.2hPa Calm   1.0mph /  1.6km/h 47% 0.00in /  0mm 0.0 W/m2
05:14 64.8 °F /  18.2 °C 43.0 °F /  6.1 °C 30.19in /  1022.2hPa Calm   3.0mph /  4.8km/h 45% 0.00in /  0mm 0.0 W/m2
05:20 64.2 °F /  17.9 °C 42.4 °F /  5.8 °C 30.19in /  1022.2hPa Calm   1.0mph /  1.6km/h 45% 0.00in /  0mm 0.0 W/m2
05:25 64.0 °F /  17.8 °C 42.8 °F /  6 °C 30.19in /  1022.2hPa Calm   2.0mph /  3.2km/h 46% 0.00in /  0mm 0.0 W/m2
05:30 63.9 °F /  17.7 °C 43.2 °F /  6.2 °C 30.20in /  1022.6hPa Calm     47% 0.00in /  0mm 0.0 W/m2
05:36 63.7 °F /  17.6 °C 44.8 °F /  7.1 °C 30.20in /  1022.6hPa Calm   1.0mph /  1.6km/h 50% 0.00in /  0mm 0.0 W/m2
05:41 63.5 °F /  17.5 °C 45.5 °F /  7.5 °C 30.20in /  1022.6hPa Calm     52% 0.00in /  0mm 0.0 W/m2
05:46 63.3 °F /  17.4 °C 45.0 °F /  7.2 °C 30.20in /  1022.6hPa Calm   2.0mph /  3.2km/h 51% 0.00in /  0mm 0.0 W/m2
05:52 63.1 °F /  17.3 °C 46.2 °F /  7.9 °C 30.20in /  1022.6hPa Calm   2.0mph /  3.2km/h 54% 0.00in /  0mm 0.0 W/m2
05:55 63.3 °F /  17.4 °C 46.4 °F /  8 °C 30.20in /  1022.6hPa East 2.0mph /  3.2km/h 3.0mph /  4.8km/h 54% 0.00in /  0mm 0.0 W/m2
06:00 63.3 °F /  17.4 °C 46.4 °F /  8 °C 30.21in /  1022.9hPa Calm   1.0mph /  1.6km/h 54% 0.00in /  0mm 0.0 W/m2
06:05 63.3 °F /  17.4 °C 46.4 °F /  8 °C 30.21in /  1022.9hPa Calm   2.0mph /  3.2km/h 54% 0.00in /  0mm 5.0 W/m2
06:10 63.3 °F /  17.4 °C 47.3 °F /  8.5 °C 30.21in /  1022.9hPa Calm   3.0mph /  4.8km/h 56% 0.00in /  0mm 7.0 W/m2
06:16 63.3 °F /  17.4 °C 48.4 °F /  9.1 °C 30.21in /  1022.9hPa Calm   3.0mph /  4.8km/h 58% 0.00in /  0mm 14.0 W/m2
06:21 63.5 °F /  17.5 °C 50.2 °F /  10.1 °C 30.21in /  1022.9hPa Calm   4.0mph /  6.4km/h 62% 0.00in /  0mm 18.0 W/m2
06:26 63.9 °F /  17.7 °C 51.8 °F /  11 °C 30.21in /  1022.9hPa East 0.9mph /  1.4km/h 8.0mph /  12.9km/h 65% 0.00in /  0mm 21.0 W/m2
06:31 64.0 °F /  17.8 °C 52.5 °F /  11.4 °C 30.22in /  1023.2hPa ENE 6.0mph /  9.7km/h 6.0mph /  9.7km/h 66% 0.00in /  0mm 26.0 W/m2
06:36 64.6 °F /  18.1 °C 52.9 °F /  11.6 °C 30.22in /  1023.2hPa Calm   4.0mph /  6.4km/h 66% 0.00in /  0mm 28.0 W/m2
06:41 64.8 °F /  18.2 °C 53.1 °F /  11.7 °C 30.22in /  1023.2hPa ESE 2.9mph /  4.7km/h 6.0mph /  9.7km/h 66% 0.00in /  0mm 26.0 W/m2
06:46 65.1 °F /  18.4 °C 53.4 °F /  11.9 °C 30.22in /  1023.2hPa NNE 0.9mph /  1.4km/h 9.0mph /  14.5km/h 66% 0.00in /  0mm 25.0 W/m2
06:51 65.5 °F /  18.6 °C 53.4 °F /  11.9 °C 30.22in /  1023.2hPa ENE 0.9mph /  1.4km/h 8.0mph /  12.9km/h 65% 0.00in /  0mm 23.0 W/m2
06:57 65.8 °F /  18.8 °C 53.8 °F /  12.1 °C 30.22in /  1023.2hPa Calm   6.0mph /  9.7km/h 65% 0.00in /  0mm 25.0 W/m2
07:02 66.0 °F /  18.9 °C 53.4 °F /  11.9 °C 30.22in /  1023.2hPa ENE 0.9mph /  1.4km/h 6.0mph /  9.7km/h 64% 0.00in /  0mm 25.0 W/m2
07:07 66.4 °F /  19.1 °C 53.8 °F /  12.1 °C 30.22in /  1023.2hPa ENE 0.9mph /  1.4km/h 7.0mph /  11.3km/h 64% 0.00in /  0mm 25.0 W/m2
07:12 66.7 °F /  19.3 °C 54.1 °F /  12.3 °C 30.22in /  1023.2hPa ENE 6.9mph /  11.1km/h 9.0mph /  14.5km/h 64% 0.00in /  0mm 26.0 W/m2
07:15 66.7 °F /  19.3 °C 53.8 °F /  12.1 °C 30.22in /  1023.2hPa Calm   7.0mph /  11.3km/h 63% 0.00in /  0mm 26.0 W/m2
07:20 67.1 °F /  19.5 °C 54.1 °F /  12.3 °C 30.22in /  1023.2hPa NE 0.9mph /  1.4km/h 6.0mph /  9.7km/h 63% 0.00in /  0mm 28.0 W/m2
07:25 67.5 °F /  19.7 °C 54.0 °F /  12.2 °C 30.22in /  1023.2hPa SE 2.9mph /  4.7km/h 9.0mph /  14.5km/h 62% 0.00in /  0mm 30.0 W/m2
07:30 67.8 °F /  19.9 °C 54.3 °F /  12.4 °C 30.22in /  1023.2hPa ENE 4.9mph /  7.9km/h 5.0mph /  8km/h 62% 0.00in /  0mm 209.0 W/m2
07:35 68.2 °F /  20.1 °C 54.1 °F /  12.3 °C 30.22in /  1023.2hPa NE 2.0mph /  3.2km/h 7.0mph /  11.3km/h 61% 0.00in /  0mm 292.0 W/m2
07:41 69.1 °F /  20.6 °C 54.7 °F /  12.6 °C 30.22in /  1023.2hPa Calm   4.0mph /  6.4km/h 60% 0.00in /  0mm 339.0 W/m2
07:47 70.2 °F /  21.2 °C 54.7 °F /  12.6 °C 30.22in /  1023.2hPa ENE 2.0mph /  3.2km/h 4.0mph /  6.4km/h 58% 0.00in /  0mm 374.0 W/m2
07:52 71.1 °F /  21.7 °C 54.5 °F /  12.5 °C 30.22in /  1023.2hPa ENE 0.9mph /  1.4km/h 4.0mph /  6.4km/h 56% 0.00in /  0mm 394.0 W/m2
07:57 71.8 °F /  22.1 °C 54.7 °F /  12.6 °C 30.22in /  1023.2hPa ESE 2.0mph /  3.2km/h 5.0mph /  8km/h 55% 0.00in /  0mm 413.0 W/m2
08:03 72.5 °F /  22.5 °C 54.9 °F /  12.7 °C 30.22in /  1023.2hPa NE 6.9mph /  11.1km/h 8.0mph /  12.9km/h 54% 0.00in /  0mm 438.0 W/m2
08:08 73.0 °F /  22.8 °C 54.9 °F /  12.7 °C 30.22in /  1023.2hPa ESE 2.9mph /  4.7km/h 7.0mph /  11.3km/h 53% 0.00in /  0mm 459.0 W/m2
08:13 73.6 °F /  23.1 °C 55.4 °F /  13 °C 30.22in /  1023.2hPa East 2.0mph /  3.2km/h 6.0mph /  9.7km/h 53% 0.00in /  0mm 478.0 W/m2
08:15 73.8 °F /  23.2 °C 55.6 °F /  13.1 °C 30.22in /  1023.2hPa East 4.0mph /  6.4km/h 6.0mph /  9.7km/h 53% 0.00in /  0mm 482.0 W/m2
08:20 74.1 °F /  23.4 °C 55.4 °F /  13 °C 30.22in /  1023.2hPa Calm   5.0mph /  8km/h 52% 0.00in /  0mm 503.0 W/m2
08:25 74.7 °F /  23.7 °C 55.4 °F /  13 °C 30.22in /  1023.2hPa NNE 4.0mph /  6.4km/h 9.0mph /  14.5km/h 51% 0.00in /  0mm 520.0 W/m2
08:30 75.0 °F /  23.9 °C 55.6 °F /  13.1 °C 30.22in /  1023.2hPa NNE 0.9mph /  1.4km/h 7.0mph /  11.3km/h 51% 0.00in /  0mm 540.0 W/m2
08:35 75.7 °F /  24.3 °C 55.8 °F /  13.2 °C 30.21in /  1022.9hPa Calm   3.0mph /  4.8km/h 50% 0.00in /  0mm 554.0 W/m2
08:40 76.3 °F /  24.6 °C 55.2 °F /  12.9 °C 30.21in /  1022.9hPa NE 0.9mph /  1.4km/h 9.0mph /  14.5km/h 48% 0.00in /  0mm 577.0 W/m2
08:46 76.6 °F /  24.8 °C 55.4 °F /  13 °C 30.21in /  1022.9hPa NNE 0.9mph /  1.4km/h 4.0mph /  6.4km/h 48% 0.00in /  0mm 598.0 W/m2
08:51 77.4 °F /  25.2 °C 55.6 °F /  13.1 °C 30.21in /  1022.9hPa NNW 2.9mph /  4.7km/h 6.0mph /  9.7km/h 47% 0.00in /  0mm 626.0 W/m2
08:56 77.4 °F /  25.2 °C 55.6 °F /  13.1 °C 30.21in /  1022.9hPa Calm   8.0mph /  12.9km/h 47% 0.00in /  0mm 638.0 W/m2
09:01 77.4 °F /  25.2 °C 55.6 °F /  13.1 °C 30.21in /  1022.9hPa North 2.0mph /  3.2km/h 3.0mph /  4.8km/h 47% 0.00in /  0mm 650.0 W/m2
09:11 78.3 °F /  25.7 °C 55.8 °F /  13.2 °C 30.21in /  1022.9hPa NNE 4.9mph /  7.9km/h 7.0mph /  11.3km/h 46% 0.00in /  0mm 689.0 W/m2
09:16 78.6 °F /  25.9 °C 55.6 °F /  13.1 °C 30.21in /  1022.9hPa NNW 0.9mph /  1.4km/h 4.0mph /  6.4km/h 45% 0.00in /  0mm 708.0 W/m2
09:21 79.0 °F /  26.1 °C 55.8 °F /  13.2 °C 30.21in /  1022.9hPa NNE 2.9mph /  4.7km/h 8.0mph /  12.9km/h 45% 0.00in /  0mm 731.0 W/m2
09:26 79.3 °F /  26.3 °C 55.6 °F /  13.1 °C 30.21in /  1022.9hPa NNW 2.9mph /  4.7km/h 8.0mph /  12.9km/h 44% 0.00in /  0mm 759.0 W/m2
09:31 79.5 °F /  26.4 °C 55.0 °F /  12.8 °C 30.21in /  1022.9hPa NNW 10.1mph /  16.3km/h 11.0mph /  17.7km/h 43% 0.00in /  0mm 821.0 W/m2
09:36 79.2 °F /  26.2 °C 55.4 °F /  13 °C 30.21in /  1022.9hPa NNE 4.9mph /  7.9km/h 7.0mph /  11.3km/h 44% 0.00in /  0mm 819.0 W/m2
09:41 79.0 °F /  26.1 °C 55.2 °F /  12.9 °C 30.21in /  1022.9hPa NNE 4.9mph /  7.9km/h 8.0mph /  12.9km/h 44% 0.00in /  0mm 789.0 W/m2
09:46 79.0 °F /  26.1 °C 55.2 °F /  12.9 °C 30.20in /  1022.6hPa West 4.9mph /  7.9km/h 9.0mph /  14.5km/h 44% 0.00in /  0mm 842.0 W/m2
09:51 79.5 °F /  26.4 °C 55.0 °F /  12.8 °C 30.21in /  1022.9hPa NW 2.0mph /  3.2km/h 9.0mph /  14.5km/h 43% 0.00in /  0mm 135.0 W/m2
09:57 79.7 °F /  26.5 °C 54.5 °F /  12.5 °C 30.20in /  1022.6hPa NNW 2.0mph /  3.2km/h 7.0mph /  11.3km/h 42% 0.00in /  0mm 907.0 W/m2
10:02 80.4 °F /  26.9 °C 55.2 °F /  12.9 °C 30.21in /  1022.9hPa North 4.0mph /  6.4km/h 6.0mph /  9.7km/h 42% 0.00in /  0mm 875.0 W/m2
10:07 80.8 °F /  27.1 °C 55.6 °F /  13.1 °C 30.20in /  1022.6hPa NNW 4.0mph /  6.4km/h 8.0mph /  12.9km/h 42% 0.00in /  0mm 867.0 W/m2
10:12 81.3 °F /  27.4 °C 56.1 °F /  13.4 °C 30.20in /  1022.6hPa WSW 2.9mph /  4.7km/h 7.0mph /  11.3km/h 42% 0.00in /  0mm 881.0 W/m2
10:17 81.7 °F /  27.6 °C 55.8 °F /  13.2 °C 30.20in /  1022.6hPa NNW 8.1mph /  13km/h 9.0mph /  14.5km/h 41% 0.00in /  0mm 886.0 W/m2
10:22 81.7 °F /  27.6 °C 55.0 °F /  12.8 °C 30.20in /  1022.6hPa NNW 4.0mph /  6.4km/h 9.0mph /  14.5km/h 40% 0.00in /  0mm 930.0 W/m2
10:27 82.0 °F /  27.8 °C 55.4 °F /  13 °C 30.20in /  1022.6hPa WNW 4.0mph /  6.4km/h 9.0mph /  14.5km/h 40% 0.00in /  0mm 947.0 W/m2
10:32 82.8 °F /  28.2 °C 54.5 °F /  12.5 °C 30.20in /  1022.6hPa North 2.0mph /  3.2km/h 9.0mph /  14.5km/h 38% 0.00in /  0mm 960.0 W/m2
10:37 83.1 °F /  28.4 °C 54.9 °F /  12.7 °C 30.20in /  1022.6hPa Calm   9.0mph /  14.5km/h 38% 0.00in /  0mm 1009.0 W/m2
10:42 83.8 °F /  28.8 °C 55.6 °F /  13.1 °C 30.19in /  1022.2hPa NNW 2.9mph /  4.7km/h 8.0mph /  12.9km/h 38% 0.00in /  0mm 990.0 W/m2
10:48 84.2 °F /  29 °C 55.0 °F /  12.8 °C 30.19in /  1022.2hPa NW 0.9mph /  1.4km/h 4.0mph /  6.4km/h 37% 0.00in /  0mm 977.0 W/m2
10:53 84.4 °F /  29.1 °C 54.5 °F /  12.5 °C 30.19in /  1022.2hPa NNW 4.0mph /  6.4km/h 5.0mph /  8km/h 36% 0.00in /  0mm 997.0 W/m2
10:58 84.4 °F /  29.1 °C 55.2 °F /  12.9 °C 30.19in /  1022.2hPa SW 2.0mph /  3.2km/h 3.0mph /  4.8km/h 37% 0.00in /  0mm 995.0 W/m2
11:03 84.6 °F /  29.2 °C 54.7 °F /  12.6 °C 30.19in /  1022.2hPa West 2.0mph /  3.2km/h 5.0mph /  8km/h 36% 0.00in /  0mm 1018.0 W/m2
11:08 84.7 °F /  29.3 °C 54.1 °F /  12.3 °C 30.19in /  1022.2hPa North 4.9mph /  7.9km/h 11.0mph /  17.7km/h 35% 0.00in /  0mm 197.0 W/m2
11:13 84.6 °F /  29.2 °C 53.1 °F /  11.7 °C 30.19in /  1022.2hPa North 0.9mph /  1.4km/h 9.0mph /  14.5km/h 34% 0.00in /  0mm 1062.0 W/m2
11:18 84.7 °F /  29.3 °C 53.2 °F /  11.8 °C 30.19in /  1022.2hPa NW 8.9mph /  14.3km/h 14.0mph /  22.5km/h 34% 0.00in /  0mm 1132.0 W/m2
11:23 84.7 °F /  29.3 °C 54.1 °F /  12.3 °C 30.18in /  1021.9hPa North 4.0mph /  6.4km/h 12.0mph /  19.3km/h 35% 0.00in /  0mm 236.0 W/m2
11:29 84.4 °F /  29.1 °C 52.9 °F /  11.6 °C 30.18in /  1021.9hPa NNW 2.0mph /  3.2km/h 14.0mph /  22.5km/h 34% 0.00in /  0mm 1118.0 W/m2
11:34 84.4 °F /  29.1 °C 52.9 °F /  11.6 °C 30.18in /  1021.9hPa NNW 6.0mph /  9.7km/h 9.0mph /  14.5km/h 34% 0.00in /  0mm 1148.0 W/m2
11:39 84.9 °F /  29.4 °C 50.9 °F /  10.5 °C 30.18in /  1021.9hPa North 4.9mph /  7.9km/h 10.0mph /  16.1km/h 31% 0.00in /  0mm 1167.0 W/m2
11:44 85.6 °F /  29.8 °C 53.2 °F /  11.8 °C 30.18in /  1021.9hPa WNW 6.9mph /  11.1km/h 11.0mph /  17.7km/h 33% 0.00in /  0mm 1144.0 W/m2
11:49 85.6 °F /  29.8 °C 52.3 °F /  11.3 °C 30.18in /  1021.9hPa WNW 4.9mph /  7.9km/h 8.0mph /  12.9km/h 32% 0.00in /  0mm 1129.0 W/m2
11:54 85.8 °F /  29.9 °C 52.5 °F /  11.4 °C 30.17in /  1021.6hPa NNW 4.0mph /  6.4km/h 6.0mph /  9.7km/h 32% 0.00in /  0mm 1153.0 W/m2
11:59 86.5 °F /  30.3 °C 51.4 °F /  10.8 °C 30.17in /  1021.6hPa NE 2.9mph /  4.7km/h 3.0mph /  4.8km/h 30% 0.00in /  0mm 1223.0 W/m2
12:04 86.7 °F /  30.4 °C 52.5 °F /  11.4 °C 30.17in /  1021.6hPa NNW 6.9mph /  11.1km/h 9.0mph /  14.5km/h 31% 0.00in /  0mm 1187.0 W/m2
12:09 87.1 °F /  30.6 °C 52.7 °F /  11.5 °C 30.17in /  1021.6hPa WNW 0.9mph /  1.4km/h 9.0mph /  14.5km/h 31% 0.00in /  0mm 1141.0 W/m2
12:14 87.6 °F /  30.9 °C 51.4 °F /  10.8 °C 30.17in /  1021.6hPa Calm   5.0mph /  8km/h 29% 0.00in /  0mm 1144.0 W/m2
12:20 87.6 °F /  30.9 °C 51.4 °F /  10.8 °C 30.17in /  1021.6hPa NNW 8.1mph /  13km/h 9.0mph /  14.5km/h 29% 0.00in /  0mm 1185.0 W/m2
12:25 88.0 °F /  31.1 °C 51.8 °F /  11 °C 30.17in /  1021.6hPa NNW 0.9mph /  1.4km/h 4.0mph /  6.4km/h 29% 0.00in /  0mm 1183.0 W/m2
12:30 88.2 °F /  31.2 °C 50.9 °F /  10.5 °C 30.17in /  1021.6hPa Calm   8.0mph /  12.9km/h 28% 0.00in /  0mm 202.0 W/m2
12:35 87.8 °F /  31 °C 50.7 °F /  10.4 °C 30.16in /  1021.2hPa NNW 6.9mph /  11.1km/h 9.0mph /  14.5km/h 28% 0.00in /  0mm 1157.0 W/m2
12:40 88.0 °F /  31.1 °C 50.7 °F /  10.4 °C 30.16in /  1021.2hPa SW 2.0mph /  3.2km/h 4.0mph /  6.4km/h 28% 0.00in /  0mm 1114.0 W/m2
12:46 88.3 °F /  31.3 °C 49.1 °F /  9.5 °C 30.16in /  1021.2hPa Calm   7.0mph /  11.3km/h 26% 0.00in /  0mm 1176.0 W/m2
12:51 88.7 °F /  31.5 °C 50.4 °F /  10.2 °C 30.16in /  1021.2hPa Calm   11.0mph /  17.7km/h 27% 0.00in /  0mm 1209.0 W/m2
12:56 89.1 °F /  31.7 °C 49.6 °F /  9.8 °C 30.16in /  1021.2hPa NNW 2.0mph /  3.2km/h 11.0mph /  17.7km/h 26% 0.00in /  0mm 1139.0 W/m2
13:01 89.2 °F /  31.8 °C 49.8 °F /  9.9 °C 30.15in /  1020.9hPa NNW 2.0mph /  3.2km/h 5.0mph /  8km/h 26% 0.00in /  0mm 1123.0 W/m2
13:06 89.8 °F /  32.1 °C 49.3 °F /  9.6 °C 30.15in /  1020.9hPa ENE 2.9mph /  4.7km/h 6.0mph /  9.7km/h 25% 0.00in /  0mm 1134.0 W/m2
13:11 89.1 °F /  31.7 °C 49.6 °F /  9.8 °C 30.15in /  1020.9hPa West 2.9mph /  4.7km/h 4.0mph /  6.4km/h 26% 0.00in /  0mm 155.0 W/m2
13:17 88.0 °F /  31.1 °C 49.8 °F /  9.9 °C 30.15in /  1020.9hPa NNE 6.0mph /  9.7km/h 9.0mph /  14.5km/h 27% 0.00in /  0mm 216.0 W/m2
13:22 87.3 °F /  30.7 °C 49.3 °F /  9.6 °C 30.14in /  1020.5hPa NNE 4.0mph /  6.4km/h 7.0mph /  11.3km/h 27% 0.00in /  0mm 1174.0 W/m2
13:27 87.6 °F /  30.9 °C 49.5 °F /  9.7 °C 30.14in /  1020.5hPa NNW 4.9mph /  7.9km/h 6.0mph /  9.7km/h 27% 0.00in /  0mm 1155.0 W/m2
13:32 88.2 °F /  31.2 °C 47.8 °F /  8.8 °C 30.14in /  1020.5hPa NNE 2.9mph /  4.7km/h 7.0mph /  11.3km/h 25% 0.00in /  0mm 190.0 W/m2
13:42 87.3 °F /  30.7 °C 47.1 °F /  8.4 °C 30.13in /  1020.2hPa SE 2.9mph /  4.7km/h 9.0mph /  14.5km/h 25% 0.00in /  0mm 237.0 W/m2
13:47 87.3 °F /  30.7 °C 45.0 °F /  7.2 °C 30.13in /  1020.2hPa NNW 11.0mph /  17.7km/h 11.0mph /  17.7km/h 23% 0.00in /  0mm 1121.0 W/m2
13:52 88.2 °F /  31.2 °C 45.7 °F /  7.6 °C 30.13in /  1020.2hPa North 2.0mph /  3.2km/h 7.0mph /  11.3km/h 23% 0.00in /  0mm 1136.0 W/m2
13:57 88.9 °F /  31.6 °C 46.2 °F /  7.9 °C 30.13in /  1020.2hPa Calm   5.0mph /  8km/h 23% 0.00in /  0mm 1139.0 W/m2
14:03 89.6 °F /  32 °C 46.9 °F /  8.3 °C 30.12in /  1019.9hPa North 2.9mph /  4.7km/h 6.0mph /  9.7km/h 23% 0.00in /  0mm 315.0 W/m2
14:08 90.0 °F /  32.2 °C 46.0 °F /  7.8 °C 30.12in /  1019.9hPa Calm   9.0mph /  14.5km/h 22% 0.00in /  0mm 1190.0 W/m2
14:13 90.5 °F /  32.5 °C 45.3 °F /  7.4 °C 30.12in /  1019.9hPa WNW 2.9mph /  4.7km/h 7.0mph /  11.3km/h 21% 0.00in /  0mm 1106.0 W/m2
14:18 91.8 °F /  33.2 °C 45.0 °F /  7.2 °C 30.11in /  1019.5hPa NW 6.0mph /  9.7km/h 6.0mph /  9.7km/h 20% 0.00in /  0mm 1058.0 W/m2
14:23 92.1 °F /  33.4 °C 45.3 °F /  7.4 °C 30.11in /  1019.5hPa SW 4.0mph /  6.4km/h 10.0mph /  16.1km/h 20% 0.00in /  0mm 1081.0 W/m2
14:28 91.6 °F /  33.1 °C 46.0 °F /  7.8 °C 30.11in /  1019.5hPa WSW 4.0mph /  6.4km/h 7.0mph /  11.3km/h 21% 0.00in /  0mm 1065.0 W/m2
14:33 91.8 °F /  33.2 °C 45.0 °F /  7.2 °C 30.11in /  1019.5hPa NW 4.0mph /  6.4km/h 6.0mph /  9.7km/h 20% 0.00in /  0mm 1085.0 W/m2
14:38 92.1 °F /  33.4 °C 45.3 °F /  7.4 °C 30.11in /  1019.5hPa NW 2.9mph /  4.7km/h 8.0mph /  12.9km/h 20% 0.00in /  0mm 1107.0 W/m2
14:43 92.7 °F /  33.7 °C 45.7 °F /  7.6 °C 30.10in /  1019.2hPa WNW 0.9mph /  1.4km/h 6.0mph /  9.7km/h 20% 0.00in /  0mm 1132.0 W/m2
14:49 92.7 °F /  33.7 °C 44.4 °F /  6.9 °C 30.10in /  1019.2hPa SW 0.9mph /  1.4km/h 4.0mph /  6.4km/h 19% 0.00in /  0mm 1153.0 W/m2
14:54 92.8 °F /  33.8 °C 44.6 °F /  7 °C 30.09in /  1018.8hPa NE 0.9mph /  1.4km/h 5.0mph /  8km/h 19% 0.00in /  0mm 673.0 W/m2
14:59 92.5 °F /  33.6 °C 45.5 °F /  7.5 °C 30.09in /  1018.8hPa Calm   1.0mph /  1.6km/h 20% 0.00in /  0mm 218.0 W/m2
15:05 91.6 °F /  33.1 °C 43.5 °F /  6.4 °C 30.09in /  1018.8hPa NNW 4.0mph /  6.4km/h 9.0mph /  14.5km/h 19% 0.00in /  0mm 193.0 W/m2
15:10 90.3 °F /  32.4 °C 43.9 °F /  6.6 °C 30.09in /  1018.8hPa NNW 4.0mph /  6.4km/h 5.0mph /  8km/h 20% 0.00in /  0mm 163.0 W/m2
15:15 89.8 °F /  32.1 °C 43.3 °F /  6.3 °C 30.09in /  1018.8hPa Calm   3.0mph /  4.8km/h 20% 0.00in /  0mm 137.0 W/m2
15:20 88.9 °F /  31.6 °C 48.6 °F /  9.2 °C 30.09in /  1018.8hPa Calm   9.0mph /  14.5km/h 25% 0.00in /  0mm 141.0 W/m2
15:25 88.0 °F /  31.1 °C 48.7 °F /  9.3 °C 30.09in /  1018.8hPa NNE 4.0mph /  6.4km/h 7.0mph /  11.3km/h 26% 0.00in /  0mm 146.0 W/m2
15:30 87.3 °F /  30.7 °C 49.3 °F /  9.6 °C 30.09in /  1018.8hPa NE 6.0mph /  9.7km/h 9.0mph /  14.5km/h 27% 0.00in /  0mm 139.0 W/m2
15:35 86.5 °F /  30.3 °C 50.5 °F /  10.3 °C 30.08in /  1018.5hPa ENE 4.9mph /  7.9km/h 7.0mph /  11.3km/h 29% 0.00in /  0mm 139.0 W/m2
15:40 85.8 °F /  29.9 °C 49.8 °F /  9.9 °C 30.08in /  1018.5hPa NE 0.9mph /  1.4km/h 10.0mph /  16.1km/h 29% 0.00in /  0mm 185.0 W/m2
15:46 85.3 °F /  29.6 °C 50.4 °F /  10.2 °C 30.09in /  1018.8hPa NE 4.9mph /  7.9km/h 10.0mph /  16.1km/h 30% 0.00in /  0mm 195.0 W/m2
15:51 84.7 °F /  29.3 °C 50.7 °F /  10.4 °C 30.09in /  1018.8hPa NE 6.0mph /  9.7km/h 15.0mph /  24.1km/h 31% 0.00in /  0mm 199.0 W/m2
15:57 83.8 °F /  28.8 °C 50.0 °F /  10 °C 30.09in /  1018.8hPa NE 4.0mph /  6.4km/h 11.0mph /  17.7km/h 31% 0.00in /  0mm 171.0 W/m2
16:02 83.3 °F /  28.5 °C 50.4 °F /  10.2 °C 30.09in /  1018.8hPa NE 10.1mph /  16.3km/h 12.0mph /  19.3km/h 32% 0.00in /  0mm 158.0 W/m2
16:08 82.8 °F /  28.2 °C 50.7 °F /  10.4 °C 30.09in /  1018.8hPa East 6.0mph /  9.7km/h 11.0mph /  17.7km/h 33% 0.00in /  0mm 123.0 W/m2
16:13 82.6 °F /  28.1 °C 50.5 °F /  10.3 °C 30.09in /  1018.8hPa North 6.0mph /  9.7km/h 9.0mph /  14.5km/h 33% 0.00in /  0mm 128.0 W/m2
16:18 82.2 °F /  27.9 °C 51.1 °F /  10.6 °C 30.09in /  1018.8hPa East 6.0mph /  9.7km/h 13.0mph /  20.9km/h 34% 0.00in /  0mm 114.0 W/m2
16:23 81.9 °F /  27.7 °C 51.4 °F /  10.8 °C 30.09in /  1018.8hPa NE 13.0mph /  20.9km/h 13.0mph /  20.9km/h 35% 0.00in /  0mm 144.0 W/m2
16:28 81.1 °F /  27.3 °C 52.3 °F /  11.3 °C 30.09in /  1018.8hPa NNW 6.9mph /  11.1km/h 12.0mph /  19.3km/h 37% 0.00in /  0mm 188.0 W/m2
16:33 81.0 °F /  27.2 °C 55.8 °F /  13.2 °C 30.09in /  1018.8hPa NE 6.0mph /  9.7km/h 12.0mph /  19.3km/h 42% 0.00in /  0mm 197.0 W/m2
16:38 79.5 °F /  26.4 °C 58.1 °F /  14.5 °C 30.09in /  1018.8hPa NNE 11.0mph /  17.7km/h 17.0mph /  27.4km/h 48% 0.00in /  0mm 156.0 W/m2
16:44 77.5 °F /  25.3 °C 58.5 °F /  14.7 °C 30.09in /  1018.8hPa East 4.0mph /  6.4km/h 10.0mph /  16.1km/h 52% 0.00in /  0mm 113.0 W/m2
16:49 76.1 °F /  24.5 °C 57.2 °F /  14 °C 30.09in /  1018.8hPa NE 2.0mph /  3.2km/h 9.0mph /  14.5km/h 52% 0.00in /  0mm 95.0 W/m2
16:59 74.8 °F /  23.8 °C 56.1 °F /  13.4 °C 30.10in /  1019.2hPa ENE 4.9mph /  7.9km/h 7.0mph /  11.3km/h 52% 0.00in /  0mm 171.0 W/m2
17:04 75.0 °F /  23.9 °C 56.7 °F /  13.7 °C 30.11in /  1019.5hPa ESE 4.0mph /  6.4km/h 6.0mph /  9.7km/h 53% 0.00in /  0mm 647.0 W/m2
17:09 75.9 °F /  24.4 °C 55.9 °F /  13.3 °C 30.11in /  1019.5hPa ESE 4.9mph /  7.9km/h 12.0mph /  19.3km/h 50% 0.00in /  0mm 621.0 W/m2
17:14 77.4 °F /  25.2 °C 54.3 °F /  12.4 °C 30.11in /  1019.5hPa East 6.9mph /  11.1km/h 11.0mph /  17.7km/h 45% 0.00in /  0mm 522.0 W/m2
17:19 77.7 °F /  25.4 °C 54.7 °F /  12.6 °C 30.10in /  1019.2hPa SE 0.9mph /  1.4km/h 11.0mph /  17.7km/h 45% 0.00in /  0mm 480.0 W/m2
17:25 77.7 °F /  25.4 °C 54.7 °F /  12.6 °C 30.10in /  1019.2hPa North 10.1mph /  16.3km/h 13.0mph /  20.9km/h 45% 0.00in /  0mm 448.0 W/m2
17:30 77.5 °F /  25.3 °C 55.0 °F /  12.8 °C 30.10in /  1019.2hPa ENE 2.0mph /  3.2km/h 16.0mph /  25.7km/h 46% 0.00in /  0mm 102.0 W/m2
17:35 76.8 °F /  24.9 °C 53.8 °F /  12.1 °C 30.11in /  1019.5hPa East 4.0mph /  6.4km/h 13.0mph /  20.9km/h 45% 0.00in /  0mm 114.0 W/m2
17:40 75.9 °F /  24.4 °C 53.6 °F /  12 °C 30.11in /  1019.5hPa SE 2.0mph /  3.2km/h 13.0mph /  20.9km/h 46% 0.00in /  0mm 127.0 W/m2
17:45 75.6 °F /  24.2 °C 53.2 °F /  11.8 °C 30.12in /  1019.9hPa NE 4.0mph /  6.4km/h 10.0mph /  16.1km/h 46% 0.00in /  0mm 229.0 W/m2
17:50 75.7 °F /  24.3 °C 52.9 °F /  11.6 °C 30.12in /  1019.9hPa ESE 0.9mph /  1.4km/h 13.0mph /  20.9km/h 45% 0.00in /  0mm 424.0 W/m2
17:55 76.5 °F /  24.7 °C 52.9 °F /  11.6 °C 30.12in /  1019.9hPa ENE 4.0mph /  6.4km/h 11.0mph /  17.7km/h 44% 0.00in /  0mm 404.0 W/m2
18:00 76.8 °F /  24.9 °C 53.8 °F /  12.1 °C 30.12in /  1019.9hPa ENE 6.0mph /  9.7km/h 11.0mph /  17.7km/h 45% 0.00in /  0mm 197.0 W/m2
18:06 76.3 °F /  24.6 °C 55.2 °F /  12.9 °C 30.12in /  1019.9hPa NE 11.0mph /  17.7km/h 11.0mph /  17.7km/h 48% 0.00in /  0mm 411.0 W/m2
18:11 75.7 °F /  24.3 °C 54.7 °F /  12.6 °C 30.11in /  1019.5hPa NE 8.1mph /  13km/h 14.0mph /  22.5km/h 48% 0.00in /  0mm 341.0 W/m2
18:16 75.7 °F /  24.3 °C 55.2 °F /  12.9 °C 30.11in /  1019.5hPa NNE 6.0mph /  9.7km/h 9.0mph /  14.5km/h 49% 0.00in /  0mm 301.0 W/m2
18:21 75.6 °F /  24.2 °C 55.6 °F /  13.1 °C 30.12in /  1019.9hPa SE 2.9mph /  4.7km/h 13.0mph /  20.9km/h 50% 0.00in /  0mm 114.0 W/m2
18:26 74.7 °F /  23.7 °C 54.3 °F /  12.4 °C 30.13in /  1020.2hPa NE 8.9mph /  14.3km/h 12.0mph /  19.3km/h 49% 0.00in /  0mm 98.0 W/m2
18:31 73.8 °F /  23.2 °C 54.5 °F /  12.5 °C 30.14in /  1020.5hPa NNE 8.1mph /  13km/h 14.0mph /  22.5km/h 51% 0.00in /  0mm 93.0 W/m2
18:36 72.9 °F /  22.7 °C 54.1 °F /  12.3 °C 30.14in /  1020.5hPa East 8.1mph /  13km/h 11.0mph /  17.7km/h 52% 0.00in /  0mm 86.0 W/m2
18:41 72.5 °F /  22.5 °C 54.0 °F /  12.2 °C 30.13in /  1020.2hPa NNE 8.1mph /  13km/h 13.0mph /  20.9km/h 52% 0.00in /  0mm 81.0 W/m2
18:44 72.3 °F /  22.4 °C 53.8 °F /  12.1 °C 30.13in /  1020.2hPa ENE 0.9mph /  1.4km/h 13.0mph /  20.9km/h 52% 0.00in /  0mm 84.0 W/m2
18:49 72.1 °F /  22.3 °C 53.6 °F /  12 °C 30.14in /  1020.5hPa NE 4.9mph /  7.9km/h 13.0mph /  20.9km/h 52% 0.00in /  0mm 74.0 W/m2
18:54 72.3 °F /  22.4 °C 53.2 °F /  11.8 °C 30.14in /  1020.5hPa NE 6.0mph /  9.7km/h 13.0mph /  20.9km/h 51% 0.00in /  0mm 53.0 W/m2
19:00 72.3 °F /  22.4 °C 52.7 °F /  11.5 °C 30.14in /  1020.5hPa East 2.0mph /  3.2km/h 10.0mph /  16.1km/h 50% 0.00in /  0mm 30.0 W/m2
19:05 72.7 °F /  22.6 °C 52.9 °F /  11.6 °C 30.14in /  1020.5hPa ENE 2.0mph /  3.2km/h 4.0mph /  6.4km/h 50% 0.00in /  0mm 21.0 W/m2
19:10 72.7 °F /  22.6 °C 52.9 °F /  11.6 °C 30.14in /  1020.5hPa ENE 6.0mph /  9.7km/h 7.0mph /  11.3km/h 50% 0.00in /  0mm 18.0 W/m2
19:15 72.7 °F /  22.6 °C 51.8 °F /  11 °C 30.14in /  1020.5hPa East 4.9mph /  7.9km/h 9.0mph /  14.5km/h 48% 0.00in /  0mm 14.0 W/m2
19:20 72.7 °F /  22.6 °C 51.8 °F /  11 °C 30.14in /  1020.5hPa East 2.0mph /  3.2km/h 7.0mph /  11.3km/h 48% 0.00in /  0mm 12.0 W/m2
19:25 72.7 °F /  22.6 °C 53.4 °F /  11.9 °C 30.15in /  1020.9hPa SSE 2.0mph /  3.2km/h 7.0mph /  11.3km/h 51% 0.00in /  0mm 11.0 W/m2
19:30 72.7 °F /  22.6 °C 53.4 °F /  11.9 °C 30.16in /  1021.2hPa Calm   5.0mph /  8km/h 51% 0.00in /  0mm 9.0 W/m2
19:35 72.3 °F /  22.4 °C 53.2 °F /  11.8 °C 30.16in /  1021.2hPa NNW 2.9mph /  4.7km/h 3.0mph /  4.8km/h 51% 0.00in /  0mm 0.0 W/m2
19:40 72.3 °F /  22.4 °C 52.7 °F /  11.5 °C 30.16in /  1021.2hPa Calm   3.0mph /  4.8km/h 50% 0.00in /  0mm 0.0 W/m2
19:45 72.3 °F /  22.4 °C 53.2 °F /  11.8 °C 30.17in /  1021.6hPa NNW 2.9mph /  4.7km/h 5.0mph /  8km/h 51% 0.00in /  0mm 0.0 W/m2
19:50 72.3 °F /  22.4 °C 53.2 °F /  11.8 °C 30.17in /  1021.6hPa NW 2.9mph /  4.7km/h 4.0mph /  6.4km/h 51% 0.00in /  0mm 0.0 W/m2
19:56 72.1 °F /  22.3 °C 53.1 °F /  11.7 °C 30.17in /  1021.6hPa NE 2.9mph /  4.7km/h 5.0mph /  8km/h 51% 0.00in /  0mm 0.0 W/m2
20:01 72.3 °F /  22.4 °C 52.7 °F /  11.5 °C 30.17in /  1021.6hPa Calm   2.0mph /  3.2km/h 50% 0.00in /  0mm 0.0 W/m2
20:06 72.3 °F /  22.4 °C 52.2 °F /  11.2 °C 30.18in /  1021.9hPa Calm   1.0mph /  1.6km/h 49% 0.00in /  0mm 0.0 W/m2
20:11 72.3 °F /  22.4 °C 51.4 °F /  10.8 °C 30.18in /  1021.9hPa North 0.9mph /  1.4km/h 3.0mph /  4.8km/h 48% 0.00in /  0mm 0.0 W/m2
20:16 72.3 °F /  22.4 °C 53.2 °F /  11.8 °C 30.19in /  1022.2hPa Calm   2.0mph /  3.2km/h 51% 0.00in /  0mm 0.0 W/m2
20:21 72.3 °F /  22.4 °C 53.8 °F /  12.1 °C 30.19in /  1022.2hPa NNE 2.0mph /  3.2km/h 4.0mph /  6.4km/h 52% 0.00in /  0mm 0.0 W/m2
20:26 72.1 °F /  22.3 °C 53.1 °F /  11.7 °C 30.19in /  1022.2hPa NE 0.9mph /  1.4km/h 2.0mph /  3.2km/h 51% 0.00in /  0mm 0.0 W/m2
20:31 72.1 °F /  22.3 °C 52.0 °F /  11.1 °C 30.19in /  1022.2hPa NNE 2.0mph /  3.2km/h 2.0mph /  3.2km/h 49% 0.00in /  0mm 0.0 W/m2
20:36 72.1 °F /  22.3 °C 50.7 °F /  10.4 °C 30.20in /  1022.6hPa North 2.0mph /  3.2km/h 4.0mph /  6.4km/h 47% 0.00in /  0mm 0.0 W/m2
20:41 72.0 °F /  22.2 °C 50.7 °F /  10.4 °C 30.20in /  1022.6hPa Calm   3.0mph /  4.8km/h 47% 0.00in /  0mm 0.0 W/m2
20:47 72.0 °F /  22.2 °C 51.3 °F /  10.7 °C 30.21in /  1022.9hPa NNW 2.0mph /  3.2km/h 2.0mph /  3.2km/h 48% 0.00in /  0mm 0.0 W/m2
20:53 72.1 °F /  22.3 °C 53.6 °F /  12 °C 30.21in /  1022.9hPa Calm   3.0mph /  4.8km/h 52% 0.00in /  0mm 0.0 W/m2
20:58 72.0 °F /  22.2 °C 55.4 °F /  13 °C 30.21in /  1022.9hPa Calm   1.0mph /  1.6km/h 56% 0.00in /  0mm 0.0 W/m2
21:03 71.8 °F /  22.1 °C 55.2 °F /  12.9 °C 30.21in /  1022.9hPa NNW 2.9mph /  4.7km/h 3.0mph /  4.8km/h 56% 0.00in /  0mm 0.0 W/m2
21:08 71.4 °F /  21.9 °C 54.9 °F /  12.7 °C 30.22in /  1023.2hPa Calm   1.0mph /  1.6km/h 56% 0.00in /  0mm 0.0 W/m2
21:13 71.2 °F /  21.8 °C 55.2 °F /  12.9 °C 30.22in /  1023.2hPa West 2.9mph /  4.7km/h 3.0mph /  4.8km/h 57% 0.00in /  0mm 0.0 W/m2
21:18 71.1 °F /  21.7 °C 55.6 °F /  13.1 °C 30.22in /  1023.2hPa WSW 2.0mph /  3.2km/h 3.0mph /  4.8km/h 58% 0.00in /  0mm 0.0 W/m2
21:23 70.7 °F /  21.5 °C 55.2 °F /  12.9 °C 30.22in /  1023.2hPa WSW 0.9mph /  1.4km/h 6.0mph /  9.7km/h 58% 0.00in /  0mm 0.0 W/m2
21:28 70.5 °F /  21.4 °C 55.6 °F /  13.1 °C 30.22in /  1023.2hPa Calm   1.0mph /  1.6km/h 59% 0.00in /  0mm 0.0 W/m2
21:33 70.3 °F /  21.3 °C 55.4 °F /  13 °C 30.22in /  1023.2hPa Calm   1.0mph /  1.6km/h 59% 0.00in /  0mm 0.0 W/m2
21:38 70.2 °F /  21.2 °C 54.1 °F /  12.3 °C 30.21in /  1022.9hPa NE 2.0mph /  3.2km/h 3.0mph /  4.8km/h 57% 0.00in /  0mm 0.0 W/m2
21:43 70.2 °F /  21.2 °C 54.7 °F /  12.6 °C 30.22in /  1023.2hPa Calm     58% 0.00in /  0mm 0.0 W/m2
21:49 70.2 °F /  21.2 °C 54.7 °F /  12.6 °C 30.22in /  1023.2hPa Calm   1.0mph /  1.6km/h 58% 0.00in /  0mm 0.0 W/m2
21:54 70.2 °F /  21.2 °C 53.8 °F /  12.1 °C 30.22in /  1023.2hPa Calm     56% 0.00in /  0mm 0.0 W/m2
21:59 70.0 °F /  21.1 °C 53.6 °F /  12 °C 30.23in /  1023.6hPa Calm     56% 0.00in /  0mm 0.0 W/m2
22:04 70.2 °F /  21.2 °C 53.2 °F /  11.8 °C 30.23in /  1023.6hPa Calm     55% 0.00in /  0mm 0.0 W/m2
22:09 70.0 °F /  21.1 °C 52.5 °F /  11.4 °C 30.23in /  1023.6hPa Calm     54% 0.00in /  0mm 0.0 W/m2
22:14 70.0 °F /  21.1 °C 52.0 °F /  11.1 °C 30.23in /  1023.6hPa Calm   2.0mph /  3.2km/h 53% 0.00in /  0mm 0.0 W/m2
22:19 70.0 °F /  21.1 °C 52.5 °F /  11.4 °C 30.23in /  1023.6hPa Calm     54% 0.00in /  0mm 0.0 W/m2
22:24 70.0 °F /  21.1 °C 52.5 °F /  11.4 °C 30.23in /  1023.6hPa Calm   1.0mph /  1.6km/h 54% 0.00in /  0mm 0.0 W/m2
22:29 70.0 °F /  21.1 °C 52.5 °F /  11.4 °C 30.23in /  1023.6hPa Calm   4.0mph /  6.4km/h 54% 0.00in /  0mm 0.0 W/m2
22:34 70.0 °F /  21.1 °C 53.1 °F /  11.7 °C 30.22in /  1023.2hPa Calm     55% 0.00in /  0mm 0.0 W/m2
22:39 70.0 °F /  21.1 °C 53.1 °F /  11.7 °C 30.22in /  1023.2hPa Calm   2.0mph /  3.2km/h 55% 0.00in /  0mm 0.0 W/m2
22:45 70.0 °F /  21.1 °C 53.6 °F /  12 °C 30.23in /  1023.6hPa Calm     56% 0.00in /  0mm 0.0 W/m2
22:50 70.0 °F /  21.1 °C 53.6 °F /  12 °C 30.23in /  1023.6hPa Calm   1.0mph /  1.6km/h 56% 0.00in /  0mm 0.0 W/m2
22:55 69.8 °F /  21 °C 53.4 °F /  11.9 °C 30.23in /  1023.6hPa Calm   1.0mph /  1.6km/h 56% 0.00in /  0mm 0.0 W/m2
23:00 69.8 °F /  21 °C 53.4 °F /  11.9 °C 30.22in /  1023.2hPa WNW 0.9mph /  1.4km/h 1.0mph /  1.6km/h 56% 0.00in /  0mm 0.0 W/m2
23:05 69.8 °F /  21 °C 53.4 °F /  11.9 °C 30.22in /  1023.2hPa Calm     56% 0.00in /  0mm 0.0 W/m2
23:10 69.8 °F /  21 °C 53.4 °F /  11.9 °C 30.22in /  1023.2hPa Calm   2.0mph /  3.2km/h 56% 0.00in /  0mm 0.0 W/m2
23:15 69.6 °F /  20.9 °C 53.2 °F /  11.8 °C 30.22in /  1023.2hPa Calm   2.0mph /  3.2km/h 56% 0.00in /  0mm 0.0 W/m2
23:20 69.6 °F /  20.9 °C 53.2 °F /  11.8 °C 30.23in /  1023.6hPa Calm   1.0mph /  1.6km/h 56% 0.00in /  0mm 0.0 W/m2
23:25 69.6 °F /  20.9 °C 53.2 °F /  11.8 °C 30.23in /  1023.6hPa WNW 2.0mph /  3.2km/h 2.0mph /  3.2km/h 56% 0.00in /  0mm 0.0 W/m2
23:31 69.6 °F /  20.9 °C 53.2 °F /  11.8 °C 30.23in /  1023.6hPa WSW 0.9mph /  1.4km/h 2.0mph /  3.2km/h 56% 0.00in /  0mm 0.0 W/m2
23:36 69.4 °F /  20.8 °C 53.1 °F /  11.7 °C 30.23in /  1023.6hPa WSW 2.0mph /  3.2km/h 2.0mph /  3.2km/h 56% 0.00in /  0mm 0.0 W/m2
23:41 69.4 °F /  20.8 °C 53.1 °F /  11.7 °C 30.22in /  1023.2hPa WSW 0.9mph /  1.4km/h 3.0mph /  4.8km/h 56% 0.00in /  0mm 0.0 W/m2
23:46 69.3 °F /  20.7 °C 52.9 °F /  11.6 °C 30.22in /  1023.2hPa Calm     56% 0.00in /  0mm 0.0 W/m2
23:51 69.4 °F /  20.8 °C 53.1 °F /  11.7 °C 30.22in /  1023.2hPa Calm     56% 0.00in /  0mm 0.0 W/m2
23:56 69.3 °F /  20.7 °C 52.9 °F /  11.6 °C 30.22in /  1023.2hPa Calm     56% 0.00in /  0mm 0.0 W/m2
Olympia, Windhoek, Namibia
Compliments of Weather Underground - 3.25 mb